EW5231 Weather Reports


Display with metric or nautical units.
time (UTC)temp
F
wind
direction
speed
MPH
gust
MPH
rain 1hr
in
rain 24hr
in
rain mn
in
humidity
%
barometer
mb
20210731061535 54 182 1.0 5.0 0.00 0.28 0.00 75 1019.3
20210731060056 54 138 1.0 6.0 0.00 0.28 0.00 75 1019.6
20210731054551 54 141 1.0 3.0 0.00 0.28 0.00 75 1019.7
20210731053100 54 33 2.0 8.0 0.00 0.28 0.00 73 1019.6
20210731051530 55 228 1.0 8.0 0.00 0.28 0.00 73 1019.6
20210731050034 55 277 1.0 7.0 0.00 0.28 0.00 71 1019.8
20210731044610 55 183 4.0 14.0 0.00 0.28 0.00 71 1019.9
20210731043043 55 217 1.0 6.0 0.00 0.28 0.00 71 1019.9
20210731041549 55 221 5.0 9.0 0.00 0.28 0.00 69 1019.8
20210731040045 55 315 1.0 6.0 0.00 0.28 0.00 72 1019.7
20210731033009 55 274 3.0 11.0 0.00 0.28 0.28 72 1019.7
20210731031514 55 252 1.0 8.0 0.00 0.28 0.28 72 1019.6
20210731030006 55 345 1.0 4.0 0.00 0.28 0.28 74 1019.5
20210731023140 55 56 2.0 11.0 0.00 0.28 0.28 73 1019.4
20210731021731 55 213 1.0 5.0 0.00 0.28 0.28 75 1019.4
20210731020143 55 104 1.0 8.0 0.00 0.28 0.28 74 1019.4
20210731014659 56 238 3.0 7.0 0.00 0.28 0.28 73 1019.4
20210731013136 55 92 1.0 3.0 0.00 0.28 0.28 71 1019.2
20210731011641 55 218 2.0 6.0 0.00 0.28 0.28 71 1019.0
20210731010247 55 225 2.0 5.0 0.00 0.28 0.28 71 1019.0
20210731004636 55 344 2.0 5.0 0.00 0.28 0.28 72 1018.9
20210731003151 56 355 1.0 7.0 0.00 0.28 0.28 73 1018.8
20210731001653 56 193 2.0 10.0 0.00 0.28 0.28 70 1018.7
20210731000126 56 348 2.0 9.0 0.00 0.28 0.28 72 1018.6
20210730234556 56 329 2.0 14.0 0.00 0.28 0.28 69 1018.4
20210730233120 56 36 3.0 8.0 0.00 0.28 0.28 72 1018.4
20210730231600 57 240 2.0 5.0 0.00 0.28 0.28 75 1018.1
20210730230044 57 192 1.0 9.0 0.00 0.28 0.28 74 1017.9
20210730224559 58 302 4.0 12.0 0.00 0.28 0.28 72 1017.8
20210730223037 58 204 2.0 10.0 0.00 0.28 0.28 73 1017.8
20210730221744 58 219 2.0 11.0 0.00 0.28 0.28 74 1017.6
20210730220140 58 355 2.0 6.0 0.00 0.28 0.28 72 1017.4
20210730214556 58 331 3.0 11.0 0.00 0.28 0.28 75 1017.4
20210730213030 58 330 3.0 10.0 0.00 0.28 0.28 72 1017.2
20210730211540 58 190 3.0 8.0 0.00 0.28 0.28 74 1016.9
20210730210031 59 312 1.0 8.0 0.00 0.28 0.28 76 1016.9
20210730204557 59 19 2.0 7.0 0.00 0.28 0.28 72 1016.7
20210730203045 60 319 2.0 9.0 0.00 0.28 0.28 70 1016.5
20210730201526 61 89 1.0 8.0 0.00 0.28 0.28 69 1016.3
20210730200024 61 238 3.0 10.0 0.00 0.28 0.28 77 1016.3
20210730194514 60 179 2.0 11.0 0.00 0.30 0.28 77 1016.2
20210730193019 60 195 3.0 14.0 0.00 0.30 0.28 76 1016.0
20210730191532 60 254 2.0 4.0 0.00 0.30 0.28 78 1016.2
20210730190027 60 288 1.0 7.0 0.00 0.30 0.28 81 1016.1
20210730184521 61 122 2.0 6.0 0.00 0.30 0.28 79 1015.7
20210730183007 60 199 1.0 4.0 0.00 0.30 0.28 84 1015.8
20210730181506 62 127 2.0 8.0 0.00 0.30 0.28 74 1015.5
20210730180124 62 44 2.0 9.0 0.00 0.30 0.28 82 1015.4
20210730174554 61 280 3.0 11.0 0.00 0.30 0.28 83 1015.4
20210730173127 61 292 2.0 6.0 0.00 0.30 0.28 84 1015.3
20210730171552 60 173 2.0 8.0 0.00 0.30 0.28 90 1015.2
20210730170116 61 130 2.0 7.0 0.00 0.30 0.28 86 1015.3
20210730164552 60 248 1.0 6.0 0.00 0.30 0.28 91 1015.0
20210730163119 59 334 1.0 3.0 0.00 0.30 0.28 92 1015.1
20210730161527 58 153 1.0 4.0 0.00 0.30 0.28 94 1014.9
20210730160051 57 240 1.0 5.0 0.00 0.30 0.28 94 1015.0
20210730154523 57 5 1.0 5.0 0.00 0.30 0.28 94 1014.9
20210730153038 56 16 1.0 3.0 0.00 0.30 0.28 96 1014.7
20210730151513 56 169 0.0 3.0 0.00 0.30 0.28 95 1014.8
20210730150016 56 350 1.0 4.0 0.01 0.30 0.28 95 1014.8
20210730144520 56 268 1.0 3.0 0.01 0.30 0.28 96 1014.6
20210730143005 56 80 2.0 6.0 0.01 0.30 0.28 96 1014.3
20210730141507 56 161 2.0 6.0 0.02 0.30 0.28 96 1014.3
20210730140247 57 53 2.0 8.0 0.01 0.28 0.28 96 1013.8
20210730134725 58 327 2.0 10.0 0.01 0.28 0.28 97 1013.7
20210730133239 57 11 1.0 6.0 0.06 0.28 0.28 98 1013.4
20210730131659 58 271 0.0 3.0 0.06 0.28 0.28 98 1013.3
20210730130114 58 70 0.0 4.0 0.05 0.28 0.27 98 1013.2
20210730124612 58 251 0.0 0.0 0.06 0.28 0.27 98 1013.1
20210730123156 58 251 0.0 0.0 0.01 0.23 0.22 98 1012.9
20210730121620 57 251 0.0 0.0 0.04 0.23 0.22 98 1013.0
20210730120142 57 251 0.0 0.0 0.07 0.23 0.22 98 1013.1
20210730114712 57 251 0.0 0.0 0.06 0.22 0.21 98 1013.2
20210730113101 57 251 0.0 0.0 0.06 0.22 0.21 98 1012.9
20210730111638 56 251 0.0 0.0 0.06 0.19 0.18 98 1012.8
20210730110105 56 251 0.0 0.0 0.15 0.16 0.15 98 1012.7
20210730104656 56 251 0.0 0.0 0.15 0.16 0.15 98 1012.8
20210730103049 56 251 0.0 0.0 0.15 0.16 0.15 98 1013.0
20210730101556 56 251 0.0 0.0 0.12 0.13 0.12 98 1012.8
20210730100056 56 251 0.0 0.0 0.00 0.01 0.00 98 1012.8
20210730094557 55 251 0.0 0.0 0.00 0.01 0.00 97 1012.6
20210730093115 56 251 0.0 0.0 0.00 0.01 0.00 97 1012.4
20210730091612 56 251 0.0 3.0 0.00 0.01 0.00 97 1012.5
20210730090133 57 251 0.0 0.0 0.00 0.01 0.00 98 1012.4
20210730084619 56 251 0.0 0.0 0.00 0.01 0.00 98 1012.2
20210730083133 56 251 0.0 0.0 0.00 0.01 0.00 97 1012.3
20210730081557 56 251 1.0 2.0 0.00 0.01 0.00 97 1012.4
20210730080038 56 251 0.0 1.0 0.00 0.01 0.00 97 1012.4
20210730074547 56 251 0.0 1.0 0.00 0.01 0.00 98 1012.3
20210730073138 55 251 0.0 0.0 0.00 0.01 0.00 97 1012.2
20210730071531 55 251 0.0 1.0 0.00 0.01 0.00 97 1012.1
20210730070050 55 251 0.0 2.0 0.00 0.01 0.00 98 1012.3
20210730064617 54 251 0.0 0.0 0.00 0.01 0.00 97 1012.4
20210730063054 54 251 0.0 1.0 0.00 0.01 0.00 97 1012.5